Time;durP1;ratioP1;P1;durP2;ratioP2;P2;SDS_P1;SDS_P2;PMS_P1;PMS_P2;Temp;Humidity;BMP_temperature;BMP_pressure;BME280_temperature;BME280_humidity;BME280_pressure;Samples;Min_cycle;Max_cycle;Signal;HPM_P1;HPM_P2
2022/01/23 00:00:32;;;;;;;0.20;0.10;;;5.80;99.90;;;;;;25592711;23;20628;-73
2022/01/23 00:10:36;;;;;;;0.20;0.20;;;5.80;99.90;;;;;;25590551;23;20201;-76
2022/01/23 00:20:41;;;;;;;0.20;0.10;;;5.90;99.90;;;;;;25591684;23;20285;-73
2022/01/23 00:30:46;;;;;;;0.20;0.10;;;5.80;99.90;;;;;;25590998;23;20249;-64
2022/01/23 00:40:51;;;;;;;0.20;0.10;;;5.70;99.90;;;;;;25588937;23;20273;-64
2022/01/23 00:50:55;;;;;;;0.20;0.10;;;5.80;99.90;;;;;;25590361;23;20253;-74
2022/01/23 01:01:00;;;;;;;0.20;0.10;;;5.80;99.90;;;;;;25588554;23;20186;-74
2022/01/23 01:11:21;;;;;;;12.57;11.63;;;5.80;99.90;;;;;;25587094;23;20450;-73
2022/01/23 01:31:51;;;;;;;0.20;0.07;;;5.70;99.90;;;;;;25588329;23;20241;-73
2022/01/23 01:41:58;;;;;;;0.70;0.67;;;5.60;99.90;;;;;;25590314;23;20191;-74
2022/01/23 01:52:04;;;;;;;0.20;0.10;;;5.50;99.90;;;;;;25588124;23;20258;-74
2022/01/23 02:12:59;;;;;;;0.20;0.10;;;5.60;99.90;;;;;;25585414;23;20652;-74
2022/01/23 02:23:23;;;;;;;0.20;0.10;;;5.50;99.90;;;;;;25587475;23;20194;-73
2022/01/23 02:54:29;;;;;;;0.20;0.10;;;5.70;99.90;;;;;;25594868;23;20473;-73
2022/01/23 03:04:37;;;;;;;0.20;0.10;;;5.60;99.90;;;;;;25593498;23;20288;-65
2022/01/23 03:14:50;;;;;;;0.20;0.10;;;5.50;99.90;;;;;;25594562;23;20660;-65
2022/01/23 03:25:08;;;;;;;0.20;0.10;;;5.40;99.90;;;;;;25592142;23;20182;-72
2022/01/23 03:35:12;;;;;;;0.20;0.10;;;5.40;99.90;;;;;;25590175;23;20261;-72
2022/01/23 03:45:55;;;;;;;0.73;0.57;;;5.20;99.90;;;;;;25592747;23;20217;-72
2022/01/23 03:55:50;;;;;;;0.20;0.10;;;5.40;99.90;;;;;;25590840;23;20166;-75
2022/01/23 04:05:55;;;;;;;0.20;0.10;;;5.40;99.90;;;;;;25589529;23;20676;-73
2022/01/23 04:16:13;;;;;;;0.20;0.00;;;5.10;99.90;;;;;;25590796;23;20178;-67
2022/01/23 04:47:51;;;;;;;0.20;0.00;;;5.00;99.90;;;;;;25589027;23;20280;-65
2022/01/23 05:08:00;;;;;;;0.20;0.10;;;4.90;99.90;;;;;;25588820;23;20370;-65
2022/01/23 05:18:04;;;;;;;0.20;0.10;;;4.80;99.90;;;;;;25588218;23;20186;-65
2022/01/23 05:28:10;;;;;;;0.20;0.10;;;4.80;99.90;;;;;;25588836;23;20273;-65
2022/01/23 05:38:13;;;;;;;0.20;0.10;;;4.70;99.90;;;;;;25588378;23;20202;-65
2022/01/23 05:48:19;;;;;;;0.20;0.10;;;4.70;99.90;;;;;;25590296;23;20624;-72
2022/01/23 05:58:23;;;;;;;0.43;0.43;;;4.80;99.90;;;;;;25587934;23;20242;-74
2022/01/23 06:08:29;;;;;;;0.20;0.10;;;4.80;99.90;;;;;;25587489;23;20277;-74
2022/01/23 06:18:35;;;;;;;0.20;0.10;;;4.70;99.90;;;;;;25586860;23;20253;-74
2022/01/23 06:28:50;;;;;;;0.20;0.10;;;4.60;99.90;;;;;;25585488;23;20174;-73
2022/01/23 06:38:55;;;;;;;0.20;0.20;;;4.60;99.90;;;;;;25587014;23;20266;-65
2022/01/23 06:49:00;;;;;;;0.20;0.10;;;4.60;99.90;;;;;;25586901;23;20189;-66
2022/01/23 06:59:04;;;;;;;1.03;1.03;;;4.50;99.90;;;;;;25586734;23;20569;-64
2022/01/23 07:09:09;;;;;;;0.20;0.10;;;4.50;99.90;;;;;;25584594;23;20269;-65
2022/01/23 07:19:13;;;;;;;0.43;0.43;;;4.60;99.90;;;;;;25585506;23;20274;-66
2022/01/23 07:29:19;;;;;;;0.20;0.10;;;4.60;99.90;;;;;;25587565;23;20253;-66
2022/01/23 07:39:22;;;;;;;0.20;0.10;;;4.60;99.90;;;;;;25592189;23;20217;-66
2022/01/23 07:49:28;;;;;;;0.20;0.10;;;4.70;99.90;;;;;;25591557;23;20177;-68
2022/01/23 07:59:31;;;;;;;0.20;0.10;;;5.00;99.90;;;;;;25591054;23;20221;-65
2022/01/23 08:09:37;;;;;;;0.20;0.00;;;5.30;99.90;;;;;;25589968;23;20214;-65
2022/01/23 08:19:45;;;;;;;0.20;0.10;;;5.60;99.90;;;;;;25588332;23;20273;-66
2022/01/23 08:29:50;;;;;;;0.20;0.10;;;6.00;99.90;;;;;;25588217;23;20568;-66
2022/01/23 08:39:54;;;;;;;0.20;0.00;;;6.40;99.90;;;;;;25588150;23;20680;-65
2022/01/23 08:49:59;;;;;;;0.20;0.00;;;6.80;99.90;;;;;;25584843;23;20240;-72
2022/01/23 09:00:03;;;;;;;0.20;0.10;;;7.00;99.90;;;;;;25587727;23;20297;-73
2022/01/23 09:10:10;;;;;;;0.20;0.00;;;7.40;99.90;;;;;;25586695;23;20288;-73
2022/01/23 09:20:15;;;;;;;0.20;0.10;;;7.80;99.90;;;;;;25587842;23;20632;-76
2022/01/23 09:30:21;;;;;;;0.20;0.10;;;8.20;99.90;;;;;;25587674;23;20173;-77
2022/01/23 09:40:26;;;;;;;0.20;0.10;;;8.70;99.90;;;;;;25586236;23;20434;-75
2022/01/23 09:50:33;;;;;;;0.20;0.00;;;9.00;99.90;;;;;;25585222;23;20178;-76
2022/01/23 10:00:37;;;;;;;0.20;0.10;;;9.60;99.90;;;;;;25582419;23;20285;-69
2022/01/23 10:10:42;;;;;;;0.20;0.10;;;9.90;99.90;;;;;;25583892;23;20459;-74
2022/01/23 10:20:47;;;;;;;0.20;0.00;;;10.40;99.90;;;;;;25583894;23;20232;-67
2022/01/23 10:30:55;;;;;;;0.20;0.10;;;11.20;99.90;;;;;;25582677;23;20257;-67
2022/01/23 10:41:27;;;;;;;0.20;0.10;;;11.60;99.90;;;;;;25582315;23;20189;-69
2022/01/23 10:51:35;;;;;;;0.20;0.10;;;11.90;99.90;;;;;;25576145;23;20177;-67
2022/01/23 11:01:40;;;;;;;0.20;0.10;;;12.80;99.90;;;;;;25576842;23;20259;-65
2022/01/23 11:11:48;;;;;;;0.20;0.10;;;13.70;99.90;;;;;;25585315;23;20214;-68
2022/01/23 11:21:53;;;;;;;0.20;0.10;;;14.00;99.90;;;;;;25585900;23;20508;-67
2022/01/23 11:31:59;;;;;;;0.33;0.33;;;14.40;99.90;;;;;;25586731;23;20196;-68
2022/01/23 12:03:13;;;;;;;2.37;2.27;;;15.40;99.90;;;;;;25585858;23;20540;-69
2022/01/23 12:13:55;;;;;;;0.20;0.10;;;15.50;99.90;;;;;;25585669;23;20195;-67
2022/01/23 12:23:59;;;;;;;0.20;0.07;;;15.90;99.90;;;;;;25585915;23;20727;-69
2022/01/23 12:34:04;;;;;;;0.20;0.10;;;16.20;99.90;;;;;;25584419;23;20264;-68
2022/01/23 12:44:10;;;;;;;0.20;0.10;;;16.40;99.90;;;;;;25584450;23;20198;-68
2022/01/23 12:54:28;;;;;;;0.20;0.10;;;17.00;99.90;;;;;;25586721;23;20206;-73
2022/01/23 13:04:38;;;;;;;0.20;0.10;;;16.80;99.90;;;;;;25583225;23;20582;-73
2022/01/23 13:14:56;;;;;;;0.20;0.20;;;16.60;99.90;;;;;;25577876;23;20264;-75
2022/01/23 13:35:41;;;;;;;0.20;0.00;;;17.20;99.90;;;;;;25346411;23;20261;-74
2022/01/23 14:07:00;;;;;;;0.27;0.27;;;17.00;99.90;;;;;;25543273;23;20210;-67
2022/01/23 14:17:15;;;;;;;0.20;0.10;;;17.40;99.90;;;;;;25583484;23;20178;-67
2022/01/23 14:27:21;;;;;;;0.20;0.20;;;17.40;99.90;;;;;;25583775;23;20265;-66
2022/01/23 14:37:29;;;;;;;0.20;0.10;;;17.40;99.90;;;;;;25581301;23;20204;-67
2022/01/23 14:47:37;;;;;;;0.20;0.00;;;17.50;99.90;;;;;;25582030;23;20272;-67
2022/01/23 14:57:44;;;;;;;0.20;0.00;;;18.00;99.90;;;;;;25583395;23;20269;-72
2022/01/23 15:07:48;;;;;;;0.20;0.10;;;17.00;99.90;;;;;;25582890;23;20213;-71
2022/01/23 15:17:53;;;;;;;0.20;0.10;;;16.60;99.90;;;;;;25580749;23;20194;-69
2022/01/23 15:27:57;;;;;;;0.20;0.10;;;17.30;99.90;;;;;;25575662;23;20190;-71
2022/01/23 15:38:03;;;;;;;0.20;0.20;;;17.10;99.90;;;;;;25578873;23;20217;-70
2022/01/23 15:48:07;;;;;;;0.20;0.10;;;16.80;99.90;;;;;;25578314;23;20568;-67
2022/01/23 15:58:12;;;;;;;0.40;0.40;;;15.60;99.90;;;;;;25582004;23;20233;-67
2022/01/23 16:08:16;;;;;;;0.20;0.10;;;15.20;99.90;;;;;;25582963;23;20229;-71
2022/01/23 16:18:22;;;;;;;0.30;0.30;;;14.40;99.90;;;;;;25581846;23;20170;-70
2022/01/23 16:28:26;;;;;;;0.20;0.10;;;13.70;99.90;;;;;;25582983;23;20194;-65
2022/01/23 16:38:31;;;;;;;5.30;4.07;;;13.10;99.90;;;;;;25581227;23;20178;-66
2022/01/23 16:48:35;;;;;;;0.20;0.10;;;12.20;99.90;;;;;;25581638;23;20277;-69
2022/01/23 16:58:40;;;;;;;0.20;0.00;;;11.70;99.90;;;;;;25580299;23;20280;-70
2022/01/23 17:08:44;;;;;;;0.20;0.10;;;11.50;99.90;;;;;;25579918;23;20206;-64
2022/01/23 17:18:49;;;;;;;0.20;0.10;;;10.50;99.90;;;;;;25582091;23;20260;-65
2022/01/23 17:28:53;;;;;;;1.63;1.53;;;9.90;99.90;;;;;;25581390;23;20185;-72
2022/01/23 17:38:58;;;;;;;0.20;0.10;;;9.80;99.90;;;;;;25580902;23;20249;-71
2022/01/23 17:49:06;;;;;;;0.20;0.03;;;9.50;99.90;;;;;;25580631;23;20552;-71
2022/01/23 17:59:11;;;;;;;0.20;0.20;;;9.20;99.90;;;;;;25578464;23;20194;-72
2022/01/23 18:09:17;;;;;;;0.20;0.10;;;9.00;99.90;;;;;;25574274;23;20913;-72
2022/01/23 18:19:22;;;;;;;0.20;0.10;;;8.80;99.90;;;;;;25577158;23;20632;-71
2022/01/23 18:29:27;;;;;;;0.20;0.10;;;8.60;99.90;;;;;;25580919;23;20200;-70
2022/01/23 18:39:32;;;;;;;0.50;0.50;;;8.30;99.90;;;;;;25573410;23;20253;-69
2022/01/23 18:49:36;;;;;;;0.20;0.10;;;8.30;99.90;;;;;;25580774;23;20276;-71
2022/01/23 18:59:47;;;;;;;0.20;0.10;;;8.30;99.90;;;;;;25580714;23;20693;-70
2022/01/23 19:09:54;;;;;;;0.20;0.03;;;8.20;99.90;;;;;;25578686;23;20213;-65
2022/01/23 19:20:02;;;;;;;0.20;0.10;;;7.90;99.90;;;;;;25580321;23;20202;-65
2022/01/23 19:30:07;;;;;;;0.20;0.07;;;7.70;99.90;;;;;;25586119;23;20726;-76
2022/01/23 19:40:18;;;;;;;0.20;0.00;;;7.90;99.90;;;;;;25591887;23;20798;-78
2022/01/23 19:50:22;;;;;;;0.63;0.63;;;8.10;99.90;;;;;;25599223;23;20181;-78
2022/01/23 20:00:28;;;;;;;0.20;0.00;;;8.20;99.90;;;;;;25604498;23;20512;-78
2022/01/23 20:10:53;;;;;;;0.20;0.10;;;8.40;99.90;;;;;;25595644;23;20647;-77
2022/01/23 20:20:58;;;;;;;0.20;0.00;;;8.50;99.90;;;;;;25602883;23;20253;-80
2022/01/23 20:31:25;;;;;;;0.20;0.00;;;8.70;99.90;;;;;;25599010;23;20174;-76
2022/01/23 20:41:30;;;;;;;0.20;0.00;;;8.60;99.90;;;;;;25607926;23;20257;-77
2022/01/23 20:51:36;;;;;;;0.20;0.00;;;8.40;99.90;;;;;;25601649;23;20174;-75
2022/01/23 21:01:48;;;;;;;0.20;0.00;;;8.10;99.90;;;;;;25601504;23;20194;-79
2022/01/23 21:11:52;;;;;;;0.20;0.10;;;7.90;99.90;;;;;;25604600;23;20209;-77
2022/01/23 21:22:08;;;;;;;0.20;0.00;;;7.80;99.90;;;;;;25599275;23;20628;-67
2022/01/23 21:42:38;;;;;;;0.20;0.10;;;7.40;99.90;;;;;;25566914;23;20281;-69
2022/01/23 21:52:42;;;;;;;0.20;0.00;;;7.10;99.90;;;;;;25583373;23;20301;-70
2022/01/23 22:02:47;;;;;;;0.20;0.00;;;7.20;99.90;;;;;;25581873;23;20190;-68
2022/01/23 22:23:16;;;;;;;2.27;2.07;;;7.40;99.90;;;;;;25583470;23;20280;-71
2022/01/23 22:33:20;;;;;;;0.20;0.10;;;7.30;99.90;;;;;;25586443;23;20264;-71
2022/01/23 22:43:25;;;;;;;0.57;0.57;;;7.20;99.90;;;;;;25583228;23;20190;-71
2022/01/23 22:53:29;;;;;;;0.63;0.63;;;7.50;99.90;;;;;;25586180;23;20795;-71
2022/01/23 23:03:34;;;;;;;0.20;0.03;;;7.50;99.90;;;;;;25590509;23;20820;-71
2022/01/23 23:13:41;;;;;;;0.20;0.10;;;7.50;99.90;;;;;;25592813;23;20232;-70
2022/01/23 23:23:47;;;;;;;0.20;0.00;;;7.50;99.90;;;;;;25593837;23;20190;-70
2022/01/23 23:33:50;;;;;;;0.20;0.10;;;7.40;99.90;;;;;;25593935;23;20253;-70
2022/01/23 23:44:05;;;;;;;0.20;0.00;;;7.40;99.90;;;;;;25590492;23;20665;-70
2022/01/23 23:54:11;;;;;;;0.60;0.60;;;7.30;99.90;;;;;;25592651;23;20253;-71
